createdAt,value
2019-06-01T00:00:27.412Z,16.31
2019-06-01T00:01:31.106Z,16.30
2019-06-01T00:02:35.770Z,16.33
2019-06-01T00:03:40.236Z,16.34
2019-06-01T00:04:45.265Z,16.34
2019-06-01T00:05:49.067Z,16.30
2019-06-01T00:06:53.351Z,16.31
2019-06-01T00:07:56.912Z,16.28
2019-06-01T00:09:01.149Z,16.29
2019-06-01T00:10:06.407Z,16.30
2019-06-01T00:11:10.618Z,16.35
2019-06-01T00:12:14.286Z,16.35
2019-06-01T00:13:18.456Z,16.34
2019-06-01T00:14:22.110Z,16.29
2019-06-01T00:15:26.392Z,16.25
2019-06-01T00:16:29.962Z,16.23
2019-06-01T00:17:34.174Z,16.23
2019-06-01T00:18:37.806Z,16.24
2019-06-01T00:19:42.130Z,16.23
2019-06-01T00:20:45.778Z,16.22
2019-06-01T00:21:50.005Z,16.24
2019-06-01T00:22:53.647Z,16.24
2019-06-01T00:23:57.892Z,16.26
2019-06-01T00:25:01.550Z,16.26
2019-06-01T00:26:05.873Z,16.26
2019-06-01T00:27:09.919Z,16.27
2019-06-01T00:28:14.187Z,16.28
2019-06-01T00:29:17.820Z,16.28
2019-06-01T00:30:27.109Z,16.28
2019-06-01T00:31:27.358Z,16.30
2019-06-01T00:32:31.612Z,16.27
2019-06-01T00:33:35.257Z,16.30
2019-06-01T00:34:41.318Z,16.28
2019-06-01T00:35:45.455Z,16.21
2019-06-01T00:36:49.788Z,16.22
2019-06-01T00:37:53.359Z,16.25
2019-06-01T00:38:57.613Z,16.26
2019-06-01T00:40:01.243Z,16.27
2019-06-01T00:41:05.491Z,16.29
2019-06-01T00:42:09.147Z,16.33
2019-06-01T00:43:13.798Z,16.31
2019-06-01T00:44:17.466Z,16.32
2019-06-01T00:45:22.125Z,16.33
2019-06-01T00:46:25.779Z,16.34
2019-06-01T00:47:29.932Z,16.36
2019-06-01T00:48:33.582Z,16.34
2019-06-01T00:49:37.842Z,16.33
2019-06-01T00:50:42.944Z,16.31
2019-06-01T00:51:47.385Z,16.16
2019-06-01T00:52:51.412Z,16.05
2019-06-01T00:53:55.640Z,16.08
2019-06-01T00:54:59.242Z,16.13
2019-06-01T00:56:03.419Z,16.14
2019-06-01T00:57:07.058Z,16.11
2019-06-01T00:58:11.901Z,16.13
2019-06-01T00:59:15.622Z,16.09
2019-06-01T01:00:20.267Z,16.02
2019-06-01T01:01:23.916Z,16.03
2019-06-01T01:02:28.600Z,16.07
2019-06-01T01:03:32.276Z,16.04
2019-06-01T01:04:36.445Z,15.96
2019-06-01T01:05:40.077Z,15.95
2019-06-01T01:06:44.484Z,15.87
2019-06-01T01:07:48.851Z,15.85
2019-06-01T01:08:53.208Z,15.88
2019-06-01T01:09:56.794Z,15.93
2019-06-01T01:11:01.039Z,15.99
2019-06-01T01:12:04.678Z,16.04
2019-06-01T01:13:12.817Z,16.04
2019-06-01T01:14:16.570Z,16.05
2019-06-01T01:15:20.821Z,16.05
2019-06-01T01:16:24.470Z,16.04
2019-06-01T01:17:28.730Z,16.04
2019-06-01T01:18:32.406Z,16.04
2019-06-01T01:19:36.620Z,16.05
2019-06-01T01:20:40.252Z,16.02
2019-06-01T01:21:44.415Z,16.00
2019-06-01T01:22:48.599Z,16.01
2019-06-01T01:23:53.249Z,15.98
2019-06-01T01:24:57.961Z,16.01
2019-06-01T01:26:02.205Z,16.05
2019-06-01T01:27:05.857Z,16.07
2019-06-01T01:28:10.077Z,16.05
2019-06-01T01:29:13.768Z,16.05
2019-06-01T01:30:18.488Z,16.08
2019-06-01T01:31:22.126Z,16.07
2019-06-01T01:32:26.363Z,16.06
2019-06-01T01:33:29.991Z,16.02
2019-06-01T01:34:34.262Z,16.06
2019-06-01T01:35:38.231Z,16.07
2019-06-01T01:36:42.389Z,16.06
2019-06-01T01:37:47.728Z,16.03
2019-06-01T01:38:52.334Z,16.01
2019-06-01T01:39:56.327Z,15.96
2019-06-01T01:41:00.627Z,15.99
2019-06-01T01:42:04.282Z,16.00
2019-06-01T01:43:08.452Z,15.99
2019-06-01T01:44:12.014Z,15.93
2019-06-01T01:45:16.287Z,15.98
2019-06-01T01:46:19.936Z,16.01
2019-06-01T01:47:24.169Z,16.05
2019-06-01T01:48:27.733Z,16.07
2019-06-01T01:49:31.876Z,16.09
2019-06-01T01:50:35.568Z,16.13
2019-06-01T01:51:39.736Z,16.17
2019-06-01T01:52:43.304Z,16.15
2019-06-01T01:53:47.469Z,16.15
2019-06-01T01:54:51.101Z,16.16
2019-06-01T01:55:55.284Z,16.14
2019-06-01T01:56:58.938Z,16.13
2019-06-01T01:58:03.180Z,16.13
2019-06-01T01:59:06.810Z,16.10
2019-06-01T02:00:12.756Z,16.10
2019-06-01T02:01:22.650Z,16.09
2019-06-01T02:02:22.391Z,16.11
2019-06-01T02:03:26.048Z,16.12
2019-06-01T02:04:30.278Z,16.14
2019-06-01T02:05:33.938Z,16.16
2019-06-01T02:06:38.111Z,16.14
2019-06-01T02:07:41.762Z,16.13
2019-06-01T02:08:46.011Z,16.10
2019-06-01T02:09:49.641Z,16.11
2019-06-01T02:10:53.827Z,16.11
2019-06-01T02:11:57.742Z,16.16
2019-06-01T02:13:02.425Z,16.13
2019-06-01T02:14:06.051Z,16.15
2019-06-01T02:15:10.391Z,16.16
2019-06-01T02:16:14.056Z,16.11
2019-06-01T02:17:18.309Z,16.10
2019-06-01T02:18:21.972Z,16.14
2019-06-01T02:19:26.221Z,16.14
2019-06-01T02:20:29.857Z,16.08
2019-06-01T02:21:34.106Z,16.04
2019-06-01T02:22:37.729Z,16.05
2019-06-01T02:23:41.952Z,16.06
2019-06-01T02:24:45.584Z,16.06
2019-06-01T02:25:49.822Z,16.00
2019-06-01T02:26:53.378Z,15.88
2019-06-01T02:27:57.655Z,15.85
2019-06-01T02:29:02.454Z,15.87
2019-06-01T02:30:10.421Z,15.92
2019-06-01T02:31:14.008Z,15.94
2019-06-01T02:32:18.185Z,15.93
2019-06-01T02:33:21.842Z,15.91
2019-06-01T02:34:26.054Z,15.90
2019-06-01T02:35:29.702Z,15.94
2019-06-01T02:36:33.934Z,15.94
2019-06-01T02:37:37.586Z,15.95
2019-06-01T02:38:41.896Z,15.97
2019-06-01T02:39:45.548Z,15.97
2019-06-01T02:40:49.790Z,15.96
2019-06-01T02:41:54.930Z,15.96
2019-06-01T02:43:01.223Z,15.95
2019-06-01T02:44:06.296Z,15.94
2019-06-01T02:45:13.011Z,15.94
2019-06-01T02:46:16.676Z,15.95
2019-06-01T02:47:20.888Z,15.97
2019-06-01T02:48:24.571Z,15.98
2019-06-01T02:49:28.840Z,15.99
2019-06-01T02:50:32.473Z,16.00
2019-06-01T02:51:36.773Z,15.99
2019-06-01T02:52:40.437Z,15.98
2019-06-01T02:53:44.694Z,16.00
2019-06-01T02:54:48.430Z,15.92
2019-06-01T02:55:52.997Z,15.80
2019-06-01T02:56:57.806Z,15.81
2019-06-01T02:58:02.518Z,15.86
2019-06-01T02:59:06.763Z,15.88
2019-06-01T03:00:11.643Z,15.86
2019-06-01T03:01:30.231Z,15.83
2019-06-01T03:02:34.984Z,15.85
2019-06-01T03:03:38.944Z,15.74
2019-06-01T03:04:44.057Z,15.77
2019-06-01T03:05:48.385Z,15.81
2019-06-01T03:06:55.116Z,15.84
2019-06-01T03:07:59.370Z,15.85
2019-06-01T03:09:06.756Z,15.88
2019-06-01T03:10:11.116Z,15.88
2019-06-01T03:11:16.350Z,15.89
2019-06-01T03:12:21.941Z,15.92
2019-06-01T03:13:29.585Z,15.88
2019-06-01T03:14:34.800Z,15.83
2019-06-01T03:15:41.920Z,15.73
2019-06-01T03:16:47.383Z,15.76
2019-06-01T03:17:54.240Z,15.77
2019-06-01T03:19:03.688Z,15.81
2019-06-01T03:20:08.447Z,15.86
2019-06-01T03:21:15.039Z,15.92
2019-06-01T03:22:22.570Z,15.93
2019-06-01T03:23:27.882Z,15.92
2019-06-01T03:24:35.002Z,15.80
2019-06-01T03:25:40.017Z,15.82
2019-06-01T03:26:46.661Z,15.81
2019-06-01T03:27:52.134Z,15.75
2019-06-01T03:28:58.204Z,15.75
2019-06-01T03:30:06.621Z,15.73
2019-06-01T03:31:13.162Z,15.72
2019-06-01T03:32:34.124Z,15.73
2019-06-01T03:33:22.910Z,15.75
2019-06-01T03:34:26.562Z,15.78
2019-06-01T03:35:30.827Z,15.82
2019-06-01T03:36:34.557Z,15.82
2019-06-01T03:37:38.889Z,15.80
2019-06-01T03:38:42.784Z,15.78
2019-06-01T03:39:46.796Z,15.78
2019-06-01T03:40:50.438Z,15.81
2019-06-01T03:41:54.672Z,15.84
2019-06-01T03:42:58.366Z,15.86
2019-06-01T03:44:02.653Z,15.89
2019-06-01T03:45:07.537Z,15.93
2019-06-01T03:46:13.017Z,15.99
2019-06-01T03:47:16.855Z,15.97
2019-06-01T03:48:21.153Z,15.99
2019-06-01T03:49:24.705Z,16.02
2019-06-01T03:50:28.880Z,16.05
2019-06-01T03:51:32.604Z,16.08
2019-06-01T03:52:36.839Z,16.10
2019-06-01T03:53:40.564Z,16.08
2019-06-01T03:54:44.737Z,16.09
2019-06-01T03:55:48.292Z,16.08
2019-06-01T03:56:52.477Z,16.02
2019-06-01T03:57:56.174Z,15.96
2019-06-01T03:59:01.002Z,15.95
2019-06-01T04:00:07.462Z,15.98
2019-06-01T04:01:11.667Z,16.04
2019-06-01T04:02:15.338Z,16.06
2019-06-01T04:03:19.939Z,16.00
2019-06-01T04:04:23.579Z,15.90
2019-06-01T04:05:27.865Z,15.86
2019-06-01T04:06:31.514Z,15.89
2019-06-01T04:07:38.804Z,15.92
2019-06-01T04:08:41.276Z,15.95
2019-06-01T04:09:45.547Z,15.98
2019-06-01T04:10:49.210Z,15.91
2019-06-01T04:11:53.427Z,15.91
2019-06-01T04:12:57.119Z,15.97
2019-06-01T04:14:01.601Z,16.02
2019-06-01T04:15:11.560Z,16.06
2019-06-01T04:16:14.607Z,16.10
2019-06-01T04:17:18.243Z,16.15
2019-06-01T04:18:22.508Z,16.15
2019-06-01T04:19:26.130Z,16.10
2019-06-01T04:20:30.414Z,16.06
2019-06-01T04:21:34.070Z,16.01
2019-06-01T04:22:38.293Z,16.00
2019-06-01T04:23:42.390Z,16.05
2019-06-01T04:24:46.606Z,16.10
2019-06-01T04:25:50.242Z,16.15
2019-06-01T04:26:54.405Z,16.15
2019-06-01T04:27:58.089Z,16.19
2019-06-01T04:29:02.401Z,16.23
2019-06-01T04:30:07.647Z,16.27
2019-06-01T04:31:12.853Z,16.24
2019-06-01T04:32:16.855Z,16.25
2019-06-01T04:33:21.005Z,16.25
2019-06-01T04:34:24.698Z,16.26
2019-06-01T04:35:28.992Z,16.25
2019-06-01T04:36:32.628Z,16.26
2019-06-01T04:37:36.854Z,16.26
2019-06-01T04:38:40.503Z,16.28
2019-06-01T04:39:44.759Z,16.31
2019-06-01T04:40:48.477Z,16.31
2019-06-01T04:41:52.682Z,16.28
2019-06-01T04:42:56.268Z,16.30
2019-06-01T04:44:00.518Z,16.32
2019-06-01T04:45:06.746Z,16.38
2019-06-01T04:46:12.344Z,16.40
2019-06-01T04:47:16.115Z,16.44
2019-06-01T04:48:20.398Z,16.45
2019-06-01T04:49:24.025Z,16.46
2019-06-01T04:50:28.261Z,16.44
2019-06-01T04:51:31.905Z,16.47
2019-06-01T04:52:36.145Z,16.52
2019-06-01T04:53:39.862Z,16.60
2019-06-01T04:54:44.125Z,16.52
2019-06-01T04:55:48.048Z,16.47
2019-06-01T04:56:52.266Z,16.40
2019-06-01T04:57:55.918Z,16.19
2019-06-01T04:59:00.231Z,16.19
2019-06-01T05:00:15.541Z,16.24
2019-06-01T05:01:11.669Z,16.29
2019-06-01T05:02:15.331Z,16.42
2019-06-01T05:03:19.479Z,16.52
2019-06-01T05:04:23.133Z,16.54
2019-06-01T05:05:27.723Z,16.62
2019-06-01T05:06:31.300Z,16.70
2019-06-01T05:07:35.632Z,16.59
2019-06-01T05:08:39.287Z,16.49
2019-06-01T05:09:43.466Z,16.41
2019-06-01T05:10:47.141Z,16.35
2019-06-01T05:11:51.275Z,16.32
2019-06-01T05:12:54.899Z,16.28
2019-06-01T05:13:59.170Z,16.08
2019-06-01T05:15:02.817Z,15.91
2019-06-01T05:16:07.897Z,15.83
2019-06-01T05:17:13.367Z,15.78
2019-06-01T05:18:19.623Z,15.69
2019-06-01T05:19:22.883Z,15.84
2019-06-01T05:20:27.143Z,15.90
2019-06-01T05:21:31.074Z,15.94
2019-06-01T05:22:35.401Z,15.94
2019-06-01T05:23:39.092Z,16.00
2019-06-01T05:24:43.362Z,15.91
2019-06-01T05:25:47.064Z,15.84
2019-06-01T05:26:51.313Z,15.86
2019-06-01T05:27:54.995Z,15.83
2019-06-01T05:28:59.243Z,15.92
2019-06-01T05:30:02.898Z,15.95
2019-06-01T05:31:09.615Z,15.94
2019-06-01T05:32:12.684Z,15.90
2019-06-01T05:33:31.080Z,15.77
2019-06-01T05:34:22.280Z,15.75
2019-06-01T05:35:26.495Z,15.74
2019-06-01T05:36:30.216Z,15.69
2019-06-01T05:37:34.471Z,15.65
2019-06-01T05:38:38.106Z,15.76
2019-06-01T05:39:45.170Z,15.78
2019-06-01T05:40:49.184Z,15.76
2019-06-01T05:41:53.392Z,15.86
2019-06-01T05:42:57.035Z,15.84
2019-06-01T05:44:08.900Z,15.87
2019-06-01T05:45:11.296Z,16.04
2019-06-01T05:46:16.062Z,16.06
2019-06-01T05:47:19.874Z,16.09
2019-06-01T05:48:28.455Z,16.16
2019-06-01T05:49:29.477Z,16.32
2019-06-01T05:50:33.723Z,16.26
2019-06-01T05:51:37.389Z,16.17
2019-06-01T05:52:42.006Z,16.25
2019-06-01T05:53:47.128Z,16.39
2019-06-01T05:54:51.323Z,16.41
2019-06-01T05:55:54.958Z,16.29
2019-06-01T05:56:59.120Z,16.25
2019-06-01T05:58:02.767Z,16.16
2019-06-01T05:59:06.984Z,16.01
2019-06-01T06:00:13.093Z,15.96
2019-06-01T06:01:19.630Z,15.93
2019-06-01T06:02:22.796Z,15.85
2019-06-01T06:03:39.988Z,15.77
2019-06-01T06:04:32.375Z,15.81
2019-06-01T06:05:36.680Z,15.83
2019-06-01T06:06:40.344Z,15.87
2019-06-01T06:07:44.578Z,15.88
2019-06-01T06:08:48.218Z,15.80
2019-06-01T06:09:52.403Z,15.78
2019-06-01T06:10:56.027Z,15.95
2019-06-01T06:12:00.277Z,16.08
2019-06-01T06:13:04.339Z,16.09
2019-06-01T06:14:08.607Z,16.08
2019-06-01T06:15:13.543Z,16.09
2019-06-01T06:16:18.244Z,16.13
2019-06-01T06:17:24.288Z,16.17
2019-06-01T06:18:33.981Z,16.20
2019-06-01T06:19:33.300Z,16.20
2019-06-01T06:20:37.473Z,16.24
2019-06-01T06:21:41.181Z,16.24
2019-06-01T06:22:45.434Z,16.23
2019-06-01T06:23:49.445Z,16.10
2019-06-01T06:24:53.680Z,15.95
2019-06-01T06:25:57.307Z,15.94
2019-06-01T06:27:04.129Z,15.97
2019-06-01T06:28:07.695Z,16.09
2019-06-01T06:29:12.738Z,16.24
2019-06-01T06:30:16.991Z,16.15
2019-06-01T06:31:21.298Z,16.17
2019-06-01T06:32:25.279Z,16.15
2019-06-01T06:33:29.439Z,16.19
2019-06-01T06:34:33.106Z,16.30
2019-06-01T06:35:41.399Z,16.44
2019-06-01T06:36:45.060Z,16.61
2019-06-01T06:37:50.152Z,16.76
2019-06-01T06:38:54.262Z,16.81
2019-06-01T06:39:58.458Z,16.82
2019-06-01T06:41:02.011Z,16.89
2019-06-01T06:42:06.942Z,17.00
2019-06-01T06:43:19.133Z,17.07
2019-06-01T06:44:25.225Z,17.14
2019-06-01T06:45:28.876Z,17.20
2019-06-01T06:46:33.109Z,17.21
2019-06-01T06:47:36.674Z,17.33
2019-06-01T06:48:40.918Z,17.55
2019-06-01T06:49:44.567Z,17.83
2019-06-01T06:50:48.791Z,18.08
2019-06-01T06:51:52.431Z,18.24
2019-06-01T06:52:56.690Z,18.15
2019-06-01T06:54:00.337Z,18.16
2019-06-01T06:55:05.425Z,18.24
2019-06-01T06:56:08.968Z,18.24
2019-06-01T06:57:13.253Z,18.43
2019-06-01T06:58:18.650Z,18.65
2019-06-01T06:59:22.695Z,18.73
2019-06-01T07:00:27.036Z,18.86
2019-06-01T07:01:31.381Z,18.95
2019-06-01T07:02:35.022Z,19.03
2019-06-01T07:03:39.260Z,18.94
2019-06-01T07:04:42.895Z,18.97
2019-06-01T07:05:47.176Z,19.10
2019-06-01T07:06:50.766Z,19.26
2019-06-01T07:07:55.075Z,19.29
2019-06-01T07:08:58.735Z,19.48
2019-06-01T07:10:03.080Z,19.68
2019-06-01T07:11:06.724Z,19.62
2019-06-01T07:12:10.971Z,19.62
2019-06-01T07:13:14.613Z,19.67
2019-06-01T07:14:19.297Z,19.74
2019-06-01T07:15:23.502Z,19.93
2019-06-01T07:16:27.901Z,20.25
2019-06-01T07:17:31.919Z,20.42
2019-06-01T07:18:36.277Z,20.47
2019-06-01T07:19:43.080Z,20.57
2019-06-01T07:20:47.661Z,20.67
2019-06-01T07:21:51.318Z,20.55
2019-06-01T07:22:55.564Z,20.29
2019-06-01T07:23:59.226Z,20.26
2019-06-01T07:25:03.486Z,20.50
2019-06-01T07:26:07.131Z,20.63
2019-06-01T07:27:11.367Z,20.62
2019-06-01T07:28:16.670Z,20.55
2019-06-01T07:29:22.014Z,20.65
2019-06-01T07:30:26.347Z,20.75
2019-06-01T07:31:30.965Z,20.72
2019-06-01T07:32:36.912Z,20.78
2019-06-01T07:33:43.359Z,21.00
2019-06-01T07:34:47.026Z,21.26
2019-06-01T07:35:51.250Z,21.48
2019-06-01T07:36:54.969Z,21.59
2019-06-01T07:37:59.255Z,21.67
2019-06-01T07:39:02.883Z,21.66
2019-06-01T07:40:12.224Z,21.80
2019-06-01T07:41:13.509Z,21.87
2019-06-01T07:42:17.683Z,21.83
2019-06-01T07:43:22.545Z,21.90
2019-06-01T07:44:27.004Z,22.12
2019-06-01T07:45:33.521Z,22.18
2019-06-01T07:46:36.556Z,22.31
2019-06-01T07:47:40.176Z,22.43
2019-06-01T07:48:44.833Z,22.52
2019-06-01T07:49:48.495Z,22.58
2019-06-01T07:50:52.714Z,22.64
2019-06-01T07:51:56.567Z,22.62
2019-06-01T07:53:00.926Z,22.50
2019-06-01T07:54:04.696Z,22.58
2019-06-01T07:55:09.097Z,22.77
2019-06-01T07:56:12.656Z,22.97
2019-06-01T07:57:16.844Z,23.10
2019-06-01T07:58:20.913Z,23.19
2019-06-01T07:59:26.373Z,23.33
2019-06-01T08:00:30.513Z,23.25
2019-06-01T08:01:35.109Z,23.10
2019-06-01T08:02:38.747Z,22.81
2019-06-01T08:03:43.027Z,22.49
2019-06-01T08:04:53.166Z,22.37
2019-06-01T08:05:52.967Z,22.33
2019-06-01T08:06:56.833Z,22.30
2019-06-01T08:08:01.249Z,22.05
2019-06-01T08:09:06.890Z,21.60
2019-06-01T08:10:11.318Z,21.37
2019-06-01T08:11:14.970Z,21.37
2019-06-01T08:12:19.192Z,21.39
2019-06-01T08:13:23.401Z,21.41
2019-06-01T08:14:28.638Z,21.43
2019-06-01T08:15:32.493Z,21.47
2019-06-01T08:16:36.667Z,21.52
2019-06-01T08:17:40.324Z,21.46
2019-06-01T08:18:44.643Z,21.38
2019-06-01T08:19:51.750Z,21.21
2019-06-01T08:20:54.318Z,21.10
2019-06-01T08:21:58.175Z,21.19
2019-06-01T08:23:02.400Z,21.26
2019-06-01T08:24:06.211Z,21.24
2019-06-01T08:25:10.716Z,21.26
2019-06-01T08:26:14.798Z,21.31
2019-06-01T08:27:19.054Z,21.37
2019-06-01T08:28:22.670Z,21.17
2019-06-01T08:29:26.989Z,21.23
2019-06-01T08:30:30.773Z,21.43
2019-06-01T08:31:35.397Z,21.67
2019-06-01T08:32:39.017Z,21.95
2019-06-01T08:33:43.335Z,22.27
2019-06-01T08:34:46.899Z,22.72
2019-06-01T08:35:52.174Z,22.78
2019-06-01T08:36:55.823Z,23.12
2019-06-01T08:38:00.025Z,23.47
2019-06-01T08:39:05.434Z,23.80
2019-06-01T08:40:09.783Z,24.08
2019-06-01T08:41:13.448Z,24.26
2019-06-01T08:42:17.595Z,24.59
2019-06-01T08:43:21.255Z,24.74
2019-06-01T08:44:25.783Z,24.81
2019-06-01T08:45:29.723Z,24.91
2019-06-01T08:46:34.121Z,24.93
2019-06-01T08:47:38.111Z,24.95
2019-06-01T08:48:42.420Z,25.26
2019-06-01T08:49:46.002Z,25.13
2019-06-01T08:50:50.281Z,25.18
2019-06-01T08:51:53.831Z,25.35
2019-06-01T08:52:58.119Z,25.28
2019-06-01T08:54:01.817Z,25.45
2019-06-01T08:55:09.420Z,25.61
2019-06-01T08:56:15.370Z,25.39
2019-06-01T08:57:19.611Z,25.05
2019-06-01T08:58:24.161Z,24.76
2019-06-01T08:59:28.471Z,24.94
2019-06-01T09:00:32.642Z,25.20
2019-06-01T09:01:36.948Z,25.35
2019-06-01T09:02:40.592Z,25.00
2019-06-01T09:03:46.818Z,25.22
2019-06-01T09:04:50.137Z,25.45
2019-06-01T09:05:54.743Z,25.41
2019-06-01T09:06:58.428Z,25.39
2019-06-01T09:08:02.643Z,25.47
2019-06-01T09:09:11.556Z,25.52
2019-06-01T09:10:15.478Z,25.51
2019-06-01T09:11:19.067Z,25.44
2019-06-01T09:12:23.233Z,25.19
2019-06-01T09:13:27.190Z,25.25
2019-06-01T09:14:31.515Z,25.28
2019-06-01T09:15:35.549Z,25.35
2019-06-01T09:16:39.941Z,25.31
2019-06-01T09:17:43.597Z,25.26
2019-06-01T09:18:47.810Z,24.96
2019-06-01T09:19:51.448Z,24.68
2019-06-01T09:20:55.856Z,24.70
2019-06-01T09:21:59.514Z,24.53
2019-06-01T09:23:03.755Z,24.39
2019-06-01T09:24:07.930Z,24.49
2019-06-01T09:25:12.560Z,24.54
2019-06-01T09:26:16.272Z,24.62
2019-06-01T09:27:20.545Z,24.69
2019-06-01T09:28:25.672Z,24.78
2019-06-01T09:29:30.156Z,24.72
2019-06-01T09:30:34.089Z,24.65
2019-06-01T09:31:38.258Z,24.67
2019-06-01T09:32:42.012Z,24.78
2019-06-01T09:33:46.192Z,24.85
2019-06-01T09:34:49.845Z,24.99
2019-06-01T09:35:56.344Z,25.13
2019-06-01T09:36:59.414Z,25.21
2019-06-01T09:38:03.764Z,24.86
2019-06-01T09:39:08.538Z,24.89
2019-06-01T09:40:13.190Z,25.25
2019-06-01T09:41:16.860Z,25.53
2019-06-01T09:42:21.107Z,25.79
2019-06-01T09:43:24.705Z,25.81
2019-06-01T09:44:29.878Z,25.80
2019-06-01T09:45:36.339Z,25.86
2019-06-01T09:46:40.920Z,25.94
2019-06-01T09:47:44.660Z,26.01
2019-06-01T09:48:48.976Z,26.16
2019-06-01T09:49:52.568Z,26.13
2019-06-01T09:50:56.774Z,26.19
2019-06-01T09:52:00.433Z,26.15
2019-06-01T09:53:05.047Z,26.15
2019-06-01T09:54:08.729Z,26.21
2019-06-01T09:55:13.797Z,26.40
2019-06-01T09:56:17.416Z,26.11
2019-06-01T09:57:22.077Z,25.97
2019-06-01T09:58:25.696Z,26.04
2019-06-01T09:59:29.914Z,26.15
2019-06-01T10:00:34.855Z,26.35
2019-06-01T10:01:39.209Z,26.34
2019-06-01T10:02:43.271Z,26.22
2019-06-01T10:03:47.542Z,26.31
2019-06-01T10:04:51.180Z,26.47
2019-06-01T10:06:01.954Z,26.23
2019-06-01T10:07:00.880Z,26.20
2019-06-01T10:08:05.206Z,26.41
2019-06-01T10:09:12.173Z,26.59
2019-06-01T10:10:16.460Z,26.70
2019-06-01T10:11:20.146Z,26.70
2019-06-01T10:12:24.359Z,26.20
2019-06-01T10:13:27.995Z,26.15
2019-06-01T10:14:32.642Z,26.30
2019-06-01T10:15:36.537Z,26.20
2019-06-01T10:16:40.827Z,26.39
2019-06-01T10:17:44.681Z,26.48
2019-06-01T10:18:48.922Z,26.39
2019-06-01T10:19:52.554Z,26.52
2019-06-01T10:20:56.733Z,26.74
2019-06-01T10:22:00.459Z,26.91
2019-06-01T10:23:04.708Z,26.83
2019-06-01T10:24:08.364Z,26.83
2019-06-01T10:25:12.867Z,26.88
2019-06-01T10:26:16.512Z,27.08
2019-06-01T10:27:20.793Z,27.29
2019-06-01T10:28:24.890Z,27.27
2019-06-01T10:29:30.439Z,27.06
2019-06-01T10:30:34.126Z,27.00
2019-06-01T10:31:41.088Z,26.80
2019-06-01T10:32:43.700Z,27.12
2019-06-01T10:33:51.341Z,27.37
2019-06-01T10:34:53.323Z,27.05
2019-06-01T10:35:57.960Z,26.83
2019-06-01T10:37:01.584Z,26.96
2019-06-01T10:38:05.998Z,27.23
2019-06-01T10:39:09.644Z,27.45
2019-06-01T10:40:13.908Z,27.69
2019-06-01T10:41:17.531Z,27.78
2019-06-01T10:42:21.737Z,27.60
2019-06-01T10:43:25.297Z,27.50
2019-06-01T10:44:29.487Z,27.39
2019-06-01T10:45:33.577Z,27.65
2019-06-01T10:46:40.188Z,27.83
2019-06-01T10:47:44.270Z,27.90
2019-06-01T10:48:48.496Z,28.15
2019-06-01T10:49:52.396Z,28.47
2019-06-01T10:50:56.638Z,28.63
2019-06-01T10:52:00.214Z,28.55
2019-06-01T10:53:04.435Z,28.74
2019-06-01T10:54:08.062Z,28.88
2019-06-01T10:55:12.492Z,28.98
2019-06-01T10:56:16.159Z,29.00
2019-06-01T10:57:20.375Z,29.03
2019-06-01T10:58:24.018Z,29.13
2019-06-01T10:59:28.259Z,29.12
2019-06-01T11:00:39.807Z,29.20
2019-06-01T11:01:38.908Z,29.32
2019-06-01T11:02:43.305Z,29.32
2019-06-01T11:03:47.713Z,29.43
2019-06-01T11:04:51.361Z,29.47
2019-06-01T11:05:55.520Z,29.54
2019-06-01T11:06:59.094Z,29.57
2019-06-01T11:08:03.300Z,29.61
2019-06-01T11:09:09.563Z,29.71
2019-06-01T11:10:15.439Z,29.80
2019-06-01T11:11:19.093Z,29.52
2019-06-01T11:12:23.291Z,29.39
2019-06-01T11:13:26.851Z,29.35
2019-06-01T11:14:31.138Z,29.27
2019-06-01T11:15:35.108Z,29.36
2019-06-01T11:16:39.641Z,29.44
2019-06-01T11:17:43.345Z,29.58
2019-06-01T11:18:48.085Z,29.78
2019-06-01T11:19:51.854Z,29.94
2019-06-01T11:20:56.161Z,29.92
2019-06-01T11:21:59.796Z,29.97
2019-06-01T11:23:04.042Z,30.03
2019-06-01T11:24:07.962Z,30.14
2019-06-01T11:25:13.231Z,29.91
2019-06-01T11:26:16.860Z,30.05
2019-06-01T11:27:21.186Z,29.73
2019-06-01T11:28:24.865Z,29.79
2019-06-01T11:29:29.188Z,29.83
2019-06-01T11:30:33.514Z,29.86
2019-06-01T11:31:38.330Z,29.89
2019-06-01T11:32:43.622Z,29.91
2019-06-01T11:33:48.175Z,29.87
2019-06-01T11:34:51.827Z,29.58
2019-06-01T11:35:56.406Z,29.70
2019-06-01T11:37:05.362Z,29.91
2019-06-01T11:38:06.215Z,30.08
2019-06-01T11:39:10.149Z,30.01
2019-06-01T11:40:14.498Z,29.55
2019-06-01T11:41:18.775Z,29.27
2019-06-01T11:42:23.686Z,29.13
2019-06-01T11:43:27.248Z,28.96
2019-06-01T11:44:31.888Z,28.86
2019-06-01T11:45:36.617Z,28.60
2019-06-01T11:46:41.153Z,28.31
2019-06-01T11:47:45.239Z,28.16
2019-06-01T11:48:49.534Z,27.70
2019-06-01T11:49:53.280Z,27.59
2019-06-01T11:50:57.484Z,27.65
2019-06-01T11:52:01.106Z,27.71
2019-06-01T11:53:05.334Z,27.62
2019-06-01T11:54:08.973Z,27.59
2019-06-01T11:55:14.053Z,27.56
2019-06-01T11:56:18.071Z,27.47
2019-06-01T11:57:22.353Z,27.34
2019-06-01T11:58:25.987Z,27.27
2019-06-01T11:59:30.218Z,27.35
2019-06-01T12:00:35.297Z,27.12
2019-06-01T12:01:39.863Z,27.08
2019-06-01T12:02:43.916Z,27.14
2019-06-01T12:03:48.360Z,27.21
2019-06-01T12:04:51.987Z,27.22
2019-06-01T12:05:56.260Z,27.28
2019-06-01T12:07:16.172Z,27.34
2019-06-01T12:08:06.324Z,27.22
2019-06-01T12:09:09.986Z,27.06
2019-06-01T12:10:14.492Z,26.80
2019-06-01T12:11:20.427Z,26.84
2019-06-01T12:12:24.650Z,26.89
2019-06-01T12:13:28.320Z,26.90
2019-06-01T12:14:32.298Z,26.86
2019-06-01T12:15:36.267Z,26.79
2019-06-01T12:16:40.995Z,26.81
2019-06-01T12:17:44.928Z,26.83
2019-06-01T12:18:49.252Z,26.82
2019-06-01T12:19:52.907Z,26.88
2019-06-01T12:20:57.191Z,26.94
2019-06-01T12:22:01.156Z,26.94
2019-06-01T12:23:05.374Z,26.94
2019-06-01T12:24:09.083Z,26.89
2019-06-01T12:25:13.507Z,26.88
2019-06-01T12:26:17.507Z,26.87
2019-06-01T12:27:21.722Z,26.86
2019-06-01T12:28:25.451Z,26.93
2019-06-01T12:29:29.678Z,26.99
2019-06-01T12:30:33.315Z,27.03
2019-06-01T12:31:37.724Z,27.04
2019-06-01T12:32:41.937Z,27.10
2019-06-01T12:33:46.501Z,27.00
2019-06-01T12:34:50.206Z,27.03
2019-06-01T12:35:54.408Z,27.02
2019-06-01T12:36:58.295Z,26.88
2019-06-01T12:38:06.430Z,26.63
2019-06-01T12:39:09.040Z,26.64
2019-06-01T12:40:13.675Z,26.67
2019-06-01T12:41:17.235Z,26.69
2019-06-01T12:42:21.582Z,26.84
2019-06-01T12:43:25.198Z,27.00
2019-06-01T12:44:29.583Z,27.12
2019-06-01T12:45:33.213Z,27.22
2019-06-01T12:46:39.779Z,27.25
2019-06-01T12:47:43.917Z,27.33
2019-06-01T12:48:48.470Z,27.44
2019-06-01T12:49:52.662Z,27.47
2019-06-01T12:50:56.964Z,27.54
2019-06-01T12:52:00.596Z,27.69
2019-06-01T12:53:04.882Z,27.77
2019-06-01T12:54:08.633Z,27.88
2019-06-01T12:55:12.849Z,27.88
2019-06-01T12:56:16.436Z,27.94
2019-06-01T12:57:20.646Z,28.15
2019-06-01T12:58:24.215Z,28.26
2019-06-01T12:59:28.481Z,28.38
2019-06-01T13:00:32.212Z,28.65
2019-06-01T13:01:36.493Z,28.87
2019-06-01T13:02:40.212Z,28.93
2019-06-01T13:03:45.244Z,28.79
2019-06-01T13:04:49.200Z,28.73
2019-06-01T13:05:53.497Z,28.73
2019-06-01T13:06:57.159Z,28.79
2019-06-01T13:08:02.958Z,28.80
2019-06-01T13:09:08.392Z,28.75
2019-06-01T13:10:12.773Z,28.88
2019-06-01T13:11:16.395Z,28.93
2019-06-01T13:12:20.704Z,28.99
2019-06-01T13:13:24.286Z,29.02
2019-06-01T13:14:28.562Z,28.96
2019-06-01T13:15:32.224Z,28.88
2019-06-01T13:16:36.561Z,28.61
2019-06-01T13:17:41.024Z,28.28
2019-06-01T13:18:45.408Z,28.12
2019-06-01T13:19:49.586Z,28.11
2019-06-01T13:20:53.930Z,28.10
2019-06-01T13:21:57.806Z,28.19
2019-06-01T13:23:02.857Z,28.42
2019-06-01T13:24:06.590Z,28.59
2019-06-01T13:25:11.000Z,28.86
2019-06-01T13:26:14.588Z,29.05
2019-06-01T13:27:18.918Z,29.11
2019-06-01T13:28:37.287Z,28.66
2019-06-01T13:29:28.338Z,28.64
2019-06-01T13:30:31.986Z,28.62
2019-06-01T13:31:36.234Z,28.45
2019-06-01T13:32:39.975Z,28.58
2019-06-01T13:33:44.514Z,28.77
2019-06-01T13:34:49.196Z,28.89
2019-06-01T13:35:53.666Z,28.85
2019-06-01T13:36:57.362Z,28.68
2019-06-01T13:38:11.881Z,28.62
2019-06-01T13:39:08.327Z,28.61
2019-06-01T13:40:15.421Z,28.71
2019-06-01T13:41:20.435Z,28.96
2019-06-01T13:42:24.617Z,29.17
2019-06-01T13:43:28.171Z,29.34
2019-06-01T13:44:32.436Z,29.55
2019-06-01T13:45:36.139Z,29.72
2019-06-01T13:46:40.347Z,29.79
2019-06-01T13:47:45.303Z,29.85
2019-06-01T13:48:50.005Z,29.79